Time;durP1;ratioP1;P1;durP2;ratioP2;P2;SDS_P1;SDS_P2;PMS_P1;PMS_P2;Temp;Humidity;BMP_temperature;BMP_pressure;BME280_temperature;BME280_humidity;BME280_pressure;Samples;Min_cycle;Max_cycle;Signal;HPM_P1;HPM_P2
2021/08/12 00:00:12;;;;;;;13.25;7.30;;;;;;;22.44;62.00;101358.97;5073291;28;20416;-67
2021/08/12 00:02:39;;;;;;;12.00;7.03;;;;;;;22.33;62.23;101355.97;5073260;28;20049;-66
2021/08/12 00:05:08;;;;;;;12.88;6.78;;;;;;;22.11;63.01;101348.41;5087899;28;20044;-69
2021/08/12 00:07:37;;;;;;;12.10;6.57;;;;;;;22.16;63.00;101361.31;5093611;28;20048;-66
2021/08/12 00:10:06;;;;;;;11.32;7.25;;;;;;;22.28;62.89;101352.72;5075062;28;20048;-65
2021/08/12 00:12:33;;;;;;;10.68;6.10;;;;;;;22.29;62.71;101337.47;5093434;28;20211;-67
2021/08/12 00:15:00;;;;;;;14.88;6.97;;;;;;;22.30;62.20;101339.91;5093822;28;20173;-65
2021/08/12 00:17:27;;;;;;;12.32;6.22;;;;;;;22.34;62.36;101348.38;5097613;28;20048;-66
2021/08/12 00:19:55;;;;;;;10.77;6.93;;;;;;;22.31;62.52;101347.16;5097119;28;20067;-66
2021/08/12 00:22:22;;;;;;;14.48;6.45;;;;;;;22.27;62.07;101346.28;5097346;28;20078;-66
2021/08/12 00:24:49;;;;;;;14.18;7.65;;;;;;;22.31;63.54;101349.97;5096714;28;20056;-66
2021/08/12 00:27:16;;;;;;;13.07;7.32;;;;;;;22.52;62.00;101354.25;5079158;28;20044;-65
2021/08/12 00:29:44;;;;;;;15.35;6.70;;;;;;;22.32;62.54;101345.13;5093980;28;20507;-65
2021/08/12 00:32:12;;;;;;;10.73;7.28;;;;;;;22.39;62.55;101350.06;5077038;28;20060;-67
2021/08/12 00:34:39;;;;;;;10.98;6.90;;;;;;;22.43;62.28;101350.91;5058642;28;20057;-66
2021/08/12 00:37:07;;;;;;;10.75;6.50;;;;;;;22.40;62.71;101346.88;5059025;28;20044;-65
2021/08/12 00:39:35;;;;;;;12.52;7.20;;;;;;;22.27;63.27;101343.47;5076610;28;20059;-65
2021/08/12 00:42:07;;;;;;;12.57;6.68;;;;;;;22.14;63.68;101341.25;5078964;28;20147;-66
2021/08/12 00:44:35;;;;;;;11.43;6.90;;;;;;;22.23;63.46;101341.78;5078834;28;20051;-65
2021/08/12 00:47:03;;;;;;;9.98;6.60;;;;;;;22.29;63.07;101337.47;5097299;28;20062;-65
2021/08/12 00:49:37;;;;;;;12.68;6.82;;;;;;;22.06;63.37;101343.13;5061824;28;20056;-66
2021/08/12 00:52:09;;;;;;;9.73;6.80;;;;;;;21.50;65.25;101342.09;5061833;28;20052;-65
2021/08/12 00:54:39;;;;;;;9.75;6.80;;;;;;;21.63;65.07;101321.13;5078590;28;20055;-65
2021/08/12 00:57:08;;;;;;;13.93;6.30;;;;;;;21.78;65.03;101327.81;5078954;28;20062;-65
2021/08/12 00:59:37;;;;;;;15.35;6.80;;;;;;;21.89;64.32;101321.22;5078553;28;20048;-65
2021/08/12 01:02:12;;;;;;;10.02;6.50;;;;;;;21.94;64.39;101325.69;5077771;28;20063;-68
2021/08/12 01:04:46;;;;;;;8.95;6.32;;;;;;;21.87;64.41;101320.75;5078191;28;20060;-67
2021/08/12 01:07:26;;;;;;;9.65;6.20;;;;;;;21.83;64.47;101322.69;5096649;28;20060;-67
2021/08/12 01:10:05;;;;;;;11.65;6.72;;;;;;;21.58;65.40;101329.84;5095297;28;20051;-66
2021/08/12 01:12:59;;;;;;;8.40;5.78;;;;;;;21.72;65.03;101332.09;5061827;28;20063;-66
2021/08/12 01:15:56;;;;;;;9.90;6.68;;;;;;;21.41;66.16;101327.50;5078228;28;20152;-66
2021/08/12 01:18:30;;;;;;;10.02;6.50;;;;;;;21.27;67.01;101330.84;5074418;28;20075;-67
2021/08/12 01:21:30;;;;;;;10.07;6.40;;;;;;;21.43;66.21;101338.38;5061144;28;20048;-67
2021/08/12 01:24:00;;;;;;;11.63;6.95;;;;;;;21.22;67.36;101341.53;5022766;28;20087;-59
2021/08/12 01:26:29;;;;;;;13.40;6.35;;;;;;;21.43;66.61;101341.94;5077667;28;20055;-60
2021/08/12 01:28:59;;;;;;;10.50;6.38;;;;;;;21.51;66.08;101340.09;5044076;28;20047;-67
2021/08/12 01:31:55;;;;;;;11.63;6.68;;;;;;;21.56;65.89;101339.78;5060965;28;20052;-59
2021/08/12 01:34:29;;;;;;;11.43;6.70;;;;;;;21.32;66.71;101340.13;5057794;28;20048;-60
2021/08/12 01:36:58;;;;;;;11.45;6.65;;;;;;;20.93;68.11;101333.72;5058528;28;20056;-60
2021/08/12 01:39:28;;;;;;;12.80;6.78;;;;;;;20.73;68.93;101338.47;5041310;28;20055;-60
2021/08/12 01:41:57;;;;;;;10.38;6.65;;;;;;;20.82;69.09;101332.66;5057730;28;20052;-60
2021/08/12 01:44:27;;;;;;;10.70;7.00;;;;;;;20.97;68.19;101340.19;5041210;28;20083;-66
2021/08/12 01:46:56;;;;;;;13.93;6.33;;;;;;;20.82;68.71;101344.69;5053431;28;20059;-66
2021/08/12 01:49:23;;;;;;;12.63;6.82;;;;;;;20.69;69.33;101345.19;5061161;28;20043;-67
2021/08/12 01:51:52;;;;;;;12.48;6.80;;;;;;;20.70;69.54;101342.00;5077132;28;20447;-66
2021/08/12 01:54:23;;;;;;;11.05;7.10;;;;;;;20.45;70.28;101342.66;5060086;28;20056;-66
2021/08/12 01:56:53;;;;;;;;;;;;;;;20.04;72.57;101344.00;5061083;28;20048;-66
2021/08/12 01:59:23;;;;;;;10.15;7.13;;;;;;;19.90;73.47;101346.44;5060591;28;19921;-67
2021/08/12 02:01:53;;;;;;;11.93;6.95;;;;;;;20.00;73.50;101346.72;5061358;28;20044;-65
2021/08/12 02:04:21;;;;;;;12.82;7.13;;;;;;;19.92;73.68;101350.53;5057410;28;20079;-66
2021/08/12 02:06:49;;;;;;;11.13;7.00;;;;;;;19.89;73.58;101350.44;5057295;28;20059;-66
2021/08/12 02:09:18;;;;;;;13.45;7.63;;;;;;;19.85;74.19;101350.34;5057152;28;20055;-66
2021/08/12 02:11:47;;;;;;;15.45;6.88;;;;;;;19.94;73.72;101345.38;5057232;28;20108;-60
2021/08/12 02:14:15;;;;;;;11.18;6.78;;;;;;;20.07;73.53;101346.06;5070151;28;20052;-61
2021/08/12 02:16:43;;;;;;;11.13;6.47;;;;;;;20.09;72.90;101338.97;5056424;28;20057;-60
2021/08/12 02:19:10;;;;;;;10.77;6.82;;;;;;;20.04;72.87;101333.66;5056833;28;20053;-59
2021/08/12 02:21:44;;;;;;;13.32;7.05;;;;;;;19.85;73.99;101330.78;5059404;28;20048;-60
2021/08/12 02:24:17;;;;;;;11.95;6.78;;;;;;;19.96;73.89;101329.03;5076659;28;20047;-60
2021/08/12 02:26:53;;;;;;;13.88;7.38;;;;;;;19.87;73.89;101322.03;5059970;28;20066;-59
2021/08/12 02:29:28;;;;;;;13.57;7.60;;;;;;;20.08;73.27;101328.16;5061017;28;20075;-59
2021/08/12 02:31:55;;;;;;;;;;;;;;;19.99;73.33;101333.94;5077333;28;20040;-60
2021/08/12 02:34:24;;;;;;;10.63;6.57;;;;;;;20.02;73.57;101332.38;5059737;28;19920;-64
2021/08/12 02:36:53;;;;;;;12.17;7.10;;;;;;;19.96;73.37;101334.63;5059598;28;20055;-65
2021/08/12 02:39:20;;;;;;;12.88;7.05;;;;;;;19.85;74.16;101341.13;5075944;28;20047;-66
2021/08/12 02:41:47;;;;;;;14.02;7.18;;;;;;;19.75;74.68;101345.25;5059408;28;20048;-66
2021/08/12 02:44:15;;;;;;;11.25;7.38;;;;;;;19.75;74.65;101345.25;5059986;28;20057;-66
2021/08/12 02:46:43;;;;;;;17.30;7.40;;;;;;;19.72;74.79;101346.00;5059745;28;20047;-65
2021/08/12 02:49:11;;;;;;;10.40;7.07;;;;;;;19.51;76.06;101347.44;5060127;28;20059;-66
2021/08/12 02:51:40;;;;;;;12.13;6.78;;;;;;;19.38;76.19;101352.28;5094822;28;20059;-64
2021/08/12 02:54:08;;;;;;;12.50;6.65;;;;;;;19.45;76.42;101341.28;5056113;28;20056;-59
2021/08/12 02:56:37;;;;;;;16.90;7.80;;;;;;;19.45;75.90;101346.06;5038942;28;20079;-59
2021/08/12 02:59:05;;;;;;;12.18;7.47;;;;;;;19.44;75.65;101347.25;5039517;28;20057;-60
2021/08/12 03:01:35;;;;;;;11.80;7.40;;;;;;;19.12;77.31;101345.50;5056635;28;20162;-61
2021/08/12 03:04:05;;;;;;;11.95;7.53;;;;;;;19.24;76.91;101351.03;5055899;28;20052;-60
2021/08/12 03:06:32;;;;;;;13.52;7.15;;;;;;;19.21;76.63;101344.19;5055204;28;20051;-60
2021/08/12 03:09:00;;;;;;;12.55;7.38;;;;;;;19.38;76.43;101335.50;5055694;28;20376;-60
2021/08/12 03:11:29;;;;;;;17.45;7.45;;;;;;;19.62;74.98;101332.56;5055792;28;20439;-59
2021/08/12 03:13:57;;;;;;;10.48;7.35;;;;;;;19.49;75.65;101331.00;5067044;28;20052;-60
2021/08/12 03:16:24;;;;;;;13.60;7.28;;;;;;;19.46;75.18;101328.94;5039477;28;20487;-59
2021/08/12 03:18:53;;;;;;;11.75;7.70;;;;;;;19.25;76.70;101328.31;5055558;28;20063;-60
2021/08/12 03:21:20;;;;;;;16.25;7.70;;;;;;;19.22;76.48;101337.41;5055805;28;20048;-66
2021/08/12 03:23:48;;;;;;;10.52;7.60;;;;;;;19.22;76.39;101340.22;5071979;28;20518;-65
2021/08/12 03:26:17;;;;;;;15.15;7.43;;;;;;;19.39;75.53;101339.91;5073416;28;20055;-67
2021/08/12 03:28:44;;;;;;;14.40;7.28;;;;;;;19.34;75.83;101342.16;5058707;28;20048;-66
2021/08/12 03:31:11;;;;;;;11.07;7.28;;;;;;;19.03;76.83;101340.88;5093806;28;20044;-66
2021/08/12 03:33:41;;;;;;;12.20;6.35;;;;;;;19.05;77.41;101340.53;5093607;28;20395;-60
2021/08/12 03:36:08;;;;;;;12.40;6.80;;;;;;;18.97;77.27;101344.25;5075655;28;20422;-61
2021/08/12 03:38:36;;;;;;;11.50;6.93;;;;;;;18.75;78.17;101339.22;5075507;28;20048;-60
2021/08/12 03:41:04;;;;;;;10.85;6.90;;;;;;;18.54;79.26;101344.16;5075462;28;20044;-65
2021/08/12 03:43:32;;;;;;;15.10;6.93;;;;;;;18.46;79.58;101336.72;5075444;28;20063;-65
2021/08/12 03:45:59;;;;;;;16.13;7.07;;;;;;;18.22;80.42;101343.09;5093526;28;20059;-65
2021/08/12 03:48:27;;;;;;;15.40;7.07;;;;;;;18.04;81.88;101329.75;5058827;28;20047;-65
2021/08/12 03:50:54;;;;;;;16.27;7.28;;;;;;;18.20;81.60;101327.91;5093290;28;20060;-65
2021/08/12 03:53:23;;;;;;;15.55;6.88;;;;;;;18.23;81.23;101324.41;5093451;28;20394;-65
2021/08/12 03:55:55;;;;;;;13.68;6.97;;;;;;;18.30;81.03;101338.56;5058916;28;20063;-66
2021/08/12 03:58:22;;;;;;;14.25;6.85;;;;;;;18.42;80.49;101333.84;5093721;28;20059;-66
2021/08/12 04:00:54;;;;;;;11.73;6.68;;;;;;;18.64;79.66;101330.53;5057899;28;20146;-65
2021/08/12 04:03:22;;;;;;;11.07;6.90;;;;;;;18.70;78.82;101331.91;5075344;28;20063;-66
2021/08/12 04:05:50;;;;;;;15.25;6.90;;;;;;;18.71;78.38;101330.75;5075096;28;20052;-66
2021/08/12 04:08:17;;;;;;;16.73;7.30;;;;;;;18.80;78.16;101330.59;5093599;28;20082;-66
2021/08/12 04:10:45;;;;;;;12.20;6.95;;;;;;;18.82;78.23;101320.72;5058472;28;20057;-66
2021/08/12 04:13:12;;;;;;;12.18;7.32;;;;;;;18.74;78.46;101318.84;5075359;28;20056;-61
2021/08/12 04:15:39;;;;;;;15.02;6.53;;;;;;;18.79;77.77;101320.59;5074517;28;20056;-60
2021/08/12 04:18:07;;;;;;;14.23;6.88;;;;;;;18.68;78.45;101311.91;5058158;28;20059;-60
2021/08/12 04:20:34;;;;;;;13.25;6.78;;;;;;;18.87;78.92;101320.47;5074863;28;20047;-59
2021/08/12 04:23:01;;;;;;;15.98;6.78;;;;;;;19.01;77.45;101320.88;5074694;28;20044;-61
2021/08/12 04:25:29;;;;;;;11.88;6.72;;;;;;;18.78;77.82;101308.63;5074531;28;20070;-60
2021/08/12 04:28:02;;;;;;;23.02;7.13;;;;;;;18.71;78.00;101311.19;5088063;28;20048;-60
2021/08/12 04:30:30;;;;;;;15.75;6.75;;;;;;;18.53;79.38;101309.84;5064287;28;20048;-60
2021/08/12 04:32:57;;;;;;;19.30;7.38;;;;;;;18.66;78.46;101308.66;5057730;28;20047;-61
2021/08/12 04:35:25;;;;;;;16.83;6.95;;;;;;;18.80;78.22;101309.09;5091926;28;20052;-66
2021/08/12 04:37:52;;;;;;;18.00;7.00;;;;;;;18.80;77.69;101305.47;5075165;28;20071;-66
2021/08/12 04:40:22;;;;;;;16.02;7.32;;;;;;;18.94;77.52;101298.34;5075106;28;20052;-65
2021/08/12 04:42:50;;;;;;;12.20;6.72;;;;;;;18.79;77.90;101299.06;5093048;28;20044;-66
2021/08/12 04:45:20;;;;;;;14.32;6.82;;;;;;;18.88;77.77;101305.31;5074725;28;20055;-65
2021/08/12 04:47:47;;;;;;;13.43;6.88;;;;;;;18.91;77.70;101301.03;5055039;28;20056;-66
2021/08/12 04:50:14;;;;;;;16.90;7.40;;;;;;;18.76;78.32;101310.94;5054699;28;20075;-65
2021/08/12 04:52:43;;;;;;;13.90;6.72;;;;;;;18.88;78.23;101316.50;5025092;28;20537;-66
2021/08/12 04:55:10;;;;;;;10.65;6.85;;;;;;;18.94;77.21;101308.69;5091797;28;20052;-65
2021/08/12 04:57:38;;;;;;;14.23;7.50;;;;;;;18.85;77.55;101308.81;5075119;28;20056;-59
2021/08/12 05:00:06;;;;;;;16.63;7.40;;;;;;;18.98;77.32;101309.59;5074835;28;20043;-60
2021/08/12 05:02:34;;;;;;;20.48;7.20;;;;;;;18.99;76.81;101306.44;5076915;28;20567;-59
2021/08/12 05:05:02;;;;;;;15.02;7.80;;;;;;;18.93;77.22;101301.47;5077867;28;20048;-60
2021/08/12 05:07:29;;;;;;;16.20;6.93;;;;;;;19.15;76.56;101298.13;5096598;28;20059;-59
2021/08/12 05:09:58;;;;;;;12.55;6.63;;;;;;;19.03;76.84;101307.38;5028083;28;20496;-60
2021/08/12 05:12:25;;;;;;;12.13;6.72;;;;;;;19.15;76.85;101303.69;5078118;28;20048;-59
2021/08/12 05:14:52;;;;;;;10.95;6.40;;;;;;;19.25;75.65;101303.16;5078186;28;20040;-60
2021/08/12 05:17:20;;;;;;;12.68;7.38;;;;;;;19.35;75.57;101302.69;5061119;28;20044;-59
2021/08/12 05:19:48;;;;;;;16.15;7.13;;;;;;;19.52;75.09;101293.97;5077909;28;20052;-60
2021/08/12 05:22:18;;;;;;;15.38;7.13;;;;;;;19.61;74.61;101305.78;5096513;28;20509;-60
2021/08/12 05:24:50;;;;;;;10.57;6.35;;;;;;;19.47;74.67;101302.63;5077620;28;20067;-60
2021/08/12 05:27:18;;;;;;;17.88;7.55;;;;;;;19.50;74.79;101313.06;5077909;28;20079;-60
2021/08/12 05:29:46;;;;;;;17.80;7.82;;;;;;;19.48;74.77;101318.22;5074396;28;20135;-60
2021/08/12 05:32:14;;;;;;;14.73;7.57;;;;;;;19.49;74.87;101313.44;5077814;28;20048;-66
2021/08/12 05:34:42;;;;;;;16.15;7.00;;;;;;;19.47;75.03;101321.38;5077274;28;20062;-66
2021/08/12 05:37:09;;;;;;;11.80;7.20;;;;;;;19.49;74.41;101308.63;5076884;28;20051;-60
2021/08/12 05:39:37;;;;;;;17.42;7.00;;;;;;;19.42;75.50;101314.03;5076876;28;20048;-61
2021/08/12 05:42:05;;;;;;;17.95;7.10;;;;;;;19.53;74.88;101309.56;5077547;28;20044;-61
2021/08/12 05:44:32;;;;;;;14.30;6.95;;;;;;;19.67;74.46;101314.69;5095406;28;20066;-61
2021/08/12 05:46:59;;;;;;;21.30;6.75;;;;;;;19.75;74.62;101306.13;5077595;28;20534;-66
2021/08/12 05:49:27;;;;;;;18.73;7.30;;;;;;;19.73;73.48;101308.50;5095604;28;20048;-66
2021/08/12 05:51:54;;;;;;;18.30;6.75;;;;;;;19.84;73.40;101306.75;5077492;28;20626;-66
2021/08/12 05:54:21;;;;;;;25.58;7.78;;;;;;;19.66;73.98;101311.13;5077051;28;20052;-66
2021/08/12 05:56:49;;;;;;;18.25;7.25;;;;;;;19.64;74.32;101315.44;5095494;28;20523;-66
2021/08/12 05:59:16;;;;;;;22.38;7.85;;;;;;;19.76;73.68;101304.97;5077309;28;20048;-59
2021/08/12 06:01:43;;;;;;;31.40;8.57;;;;;;;19.74;73.71;101315.69;5057912;28;20490;-60
2021/08/12 06:04:11;;;;;;;20.13;8.10;;;;;;;19.98;73.44;101317.47;5070449;28;20059;-66
2021/08/12 06:06:39;;;;;;;23.08;8.38;;;;;;;19.85;73.54;101321.56;5075590;28;20040;-65
2021/08/12 06:09:07;;;;;;;19.67;8.57;;;;;;;19.73;73.87;101327.25;5075887;28;20052;-66
2021/08/12 06:11:35;;;;;;;21.92;7.47;;;;;;;19.58;75.11;101320.47;5075911;28;20047;-65
2021/08/12 06:14:02;;;;;;;13.25;7.50;;;;;;;19.70;74.96;101328.75;5057761;28;20036;-60
2021/08/12 06:16:30;;;;;;;23.15;7.68;;;;;;;19.71;74.19;101330.41;5075085;28;20048;-59
2021/08/12 06:18:57;;;;;;;16.48;8.07;;;;;;;19.70;73.89;101322.38;5072637;28;20048;-59
2021/08/12 06:21:25;;;;;;;23.48;8.15;;;;;;;19.78;73.56;101326.97;5075390;28;20560;-60
2021/08/12 06:23:52;;;;;;;18.67;7.53;;;;;;;20.21;72.80;101314.91;5069532;28;20376;-66
2021/08/12 06:26:20;;;;;;;18.70;8.13;;;;;;;20.25;71.69;101326.97;5070860;28;20483;-66
2021/08/12 06:28:50;;;;;;;13.48;8.07;;;;;;;20.17;71.93;101326.78;5065893;28;20126;-59
2021/08/12 06:31:17;;;;;;;;;;;;;;;20.17;71.57;101326.00;5069346;28;20514;-66
2021/08/12 06:33:45;;;;;;;17.38;7.88;;;;;;;20.09;72.33;101324.97;5088559;28;20294;-65
2021/08/12 06:36:12;;;;;;;17.67;8.82;;;;;;;20.40;70.73;101320.53;5092965;28;20621;-66
2021/08/12 06:38:45;;;;;;;24.02;8.23;;;;;;;20.48;70.26;101319.50;5070614;28;20059;-65
2021/08/12 06:41:12;;;;;;;18.25;8.63;;;;;;;20.67;70.19;101325.13;5068769;28;20118;-60
2021/08/12 06:43:45;;;;;;;20.35;8.90;;;;;;;21.09;69.37;101324.09;5067284;28;20048;-60
2021/08/12 06:46:12;;;;;;;18.05;7.90;;;;;;;21.21;68.75;101328.72;5050152;28;20047;-60
2021/08/12 06:48:42;;;;;;;15.70;8.13;;;;;;;21.37;68.33;101325.81;5063772;28;20055;-61
2021/08/12 06:51:29;;;;;;;21.58;8.73;;;;;;;21.28;67.85;101331.66;5072967;28;20059;-61
2021/08/12 06:53:57;;;;;;;19.63;8.88;;;;;;;21.38;68.03;101327.44;5068727;28;20044;-61
2021/08/12 06:56:25;;;;;;;19.33;8.50;;;;;;;21.55;66.80;101329.78;5075594;28;20693;-61
2021/08/12 06:58:52;;;;;;;15.55;8.82;;;;;;;20.83;67.76;101335.13;5075314;28;20075;-60
2021/08/12 07:01:19;;;;;;;16.40;8.15;;;;;;;20.72;68.82;101334.06;5056537;28;20051;-62
2021/08/12 07:03:47;;;;;;;16.23;7.47;;;;;;;20.41;71.32;101331.38;5057165;28;20051;-63
2021/08/12 07:06:14;;;;;;;18.15;9.55;;;;;;;20.48;69.35;101327.91;5058323;28;20060;-63
2021/08/12 07:08:43;;;;;;;15.60;8.30;;;;;;;20.64;69.83;101325.88;5072219;28;20063;-63
2021/08/12 07:11:11;;;;;;;17.23;8.13;;;;;;;20.58;70.61;101330.13;5054315;28;20055;-62
2021/08/12 07:13:42;;;;;;;13.60;8.32;;;;;;;20.77;69.65;101330.16;5068142;28;20406;-63
2021/08/12 07:16:14;;;;;;;17.83;8.73;;;;;;;20.32;70.42;101315.94;5055503;28;20055;-64
2021/08/12 07:18:44;;;;;;;20.52;8.45;;;;;;;20.51;69.45;101322.41;5059311;28;20036;-63
2021/08/12 07:21:19;;;;;;;20.70;8.52;;;;;;;20.33;69.97;101317.56;5075496;28;20411;-63
2021/08/12 07:23:48;;;;;;;16.77;8.60;;;;;;;20.63;68.83;101319.47;5067563;28;20044;-63
2021/08/12 07:26:17;;;;;;;17.17;8.40;;;;;;;20.53;68.59;101325.66;5073435;28;20048;-64
2021/08/12 07:28:46;;;;;;;18.10;8.30;;;;;;;20.35;69.50;101324.41;5074976;28;20656;-65
2021/08/12 07:31:16;;;;;;;24.77;7.93;;;;;;;20.54;69.55;101320.88;5055874;28;20048;-63
2021/08/12 07:33:44;;;;;;;;;;;;;;;20.79;68.32;101322.19;5069013;28;20055;-64
2021/08/12 07:36:12;;;;;;;22.88;8.05;;;;;;;20.82;68.56;101321.47;5073848;28;19927;-64
2021/08/12 07:38:39;;;;;;;18.33;8.63;;;;;;;20.90;68.03;101312.03;5074194;28;20044;-64
2021/08/12 07:41:07;;;;;;;17.60;7.63;;;;;;;21.32;67.46;101315.72;5074819;28;20062;-64
2021/08/12 07:43:35;;;;;;;14.88;8.40;;;;;;;20.81;67.53;101319.84;5072715;28;20048;-63
2021/08/12 07:46:03;;;;;;;20.48;7.85;;;;;;;20.84;67.23;101317.13;5046407;28;20048;-63
2021/08/12 07:48:30;;;;;;;20.45;8.52;;;;;;;20.85;67.73;101315.94;5068390;28;20048;-63
2021/08/12 07:50:57;;;;;;;17.58;8.25;;;;;;;21.31;65.94;101316.09;5093603;28;20162;-63
2021/08/12 07:53:24;;;;;;;18.40;7.85;;;;;;;21.36;65.90;101313.00;5091021;28;20053;-63
2021/08/12 07:55:53;;;;;;;14.82;7.57;;;;;;;21.20;66.12;101316.69;5087429;28;20075;-63
2021/08/12 07:58:20;;;;;;;21.33;8.20;;;;;;;21.17;65.84;101313.81;5085409;28;20048;-63
2021/08/12 08:00:47;;;;;;;16.08;8.10;;;;;;;21.16;65.81;101310.22;5091424;28;20375;-62
2021/08/12 08:03:15;;;;;;;19.98;8.57;;;;;;;20.98;66.06;101313.81;5090378;28;20067;-62
2021/08/12 08:05:43;;;;;;;27.27;8.90;;;;;;;20.95;66.90;101318.16;5072379;28;20048;-63
2021/08/12 08:08:10;;;;;;;15.07;7.50;;;;;;;21.59;65.36;101308.19;5092708;28;20052;-64
2021/08/12 08:10:39;;;;;;;22.23;8.60;;;;;;;21.43;64.48;101313.13;5071407;28;20585;-63
2021/08/12 08:13:06;;;;;;;21.85;8.23;;;;;;;21.35;65.02;101320.59;5067724;28;20045;-65
2021/08/12 08:15:33;;;;;;;21.45;8.65;;;;;;;21.33;64.84;101311.75;5078296;28;20044;-64
2021/08/12 08:18:01;;;;;;;22.60;8.43;;;;;;;21.40;64.38;101311.06;5086908;28;20305;-63
2021/08/12 08:20:29;;;;;;;18.95;8.98;;;;;;;21.80;63.27;101306.63;5040327;28;20426;-63
2021/08/12 08:23:05;;;;;;;17.45;9.07;;;;;;;21.56;63.99;101306.16;5071258;28;20067;-63
2021/08/12 08:25:32;;;;;;;23.73;8.65;;;;;;;21.76;63.65;101305.72;5089091;28;20079;-64
2021/08/12 08:28:01;;;;;;;17.92;9.02;;;;;;;21.72;62.60;101309.66;5071336;28;20040;-63
2021/08/12 08:30:30;;;;;;;24.38;8.10;;;;;;;21.69;63.23;101316.00;5074733;28;20052;-63
2021/08/12 08:32:57;;;;;;;20.05;8.30;;;;;;;21.83;63.32;101305.03;5089837;28;20052;-63
2021/08/12 08:35:28;;;;;;;13.18;7.47;;;;;;;22.35;61.78;101305.91;5088807;28;20503;-63
2021/08/12 08:37:57;;;;;;;19.40;8.00;;;;;;;22.56;61.04;101301.81;5077377;28;20048;-63
2021/08/12 08:40:25;;;;;;;18.55;8.63;;;;;;;22.02;61.62;101305.00;5063930;28;20048;-65
2021/08/12 08:42:52;;;;;;;17.88;8.23;;;;;;;22.14;61.82;101304.78;5093226;28;20043;-63
2021/08/12 08:45:22;;;;;;;17.30;8.10;;;;;;;22.72;60.50;101302.41;5095911;28;20407;-64
2021/08/12 08:47:51;;;;;;;20.48;7.82;;;;;;;22.73;59.75;101316.09;5093972;28;20055;-64
2021/08/12 08:50:25;;;;;;;19.27;8.55;;;;;;;21.92;61.93;101314.00;5094316;28;20533;-65
2021/08/12 08:52:53;;;;;;;17.35;8.23;;;;;;;21.87;62.21;101312.34;5086167;28;20052;-62
2021/08/12 08:55:23;;;;;;;13.48;7.90;;;;;;;21.92;62.49;101309.22;5088350;28;20424;-59
2021/08/12 08:57:57;;;;;;;30.73;8.50;;;;;;;22.46;60.84;101314.47;5086982;28;20051;-62
2021/08/12 09:00:25;;;;;;;21.05;8.68;;;;;;;22.85;59.53;101318.66;5085514;28;20585;-62
2021/08/12 09:02:54;;;;;;;24.48;8.35;;;;;;;22.87;59.65;101318.28;5066551;28;20052;-62
2021/08/12 09:05:21;;;;;;;20.17;9.93;;;;;;;23.20;58.54;101323.91;5084658;28;20140;-62
2021/08/12 09:07:52;;;;;;;20.80;7.65;;;;;;;23.38;57.60;101313.69;5085703;28;20055;-62
2021/08/12 09:10:21;;;;;;;18.45;8.27;;;;;;;23.18;57.65;101315.88;5070785;28;20040;-63
2021/08/12 09:12:49;;;;;;;16.38;8.05;;;;;;;22.79;59.35;101320.19;5065812;28;20062;-62
2021/08/12 09:15:21;;;;;;;17.33;7.72;;;;;;;23.42;57.99;101317.34;5061773;28;20067;-62
2021/08/12 09:17:50;;;;;;;15.98;7.78;;;;;;;23.67;56.92;101320.41;5084050;28;20047;-64
2021/08/12 09:20:24;;;;;;;25.63;8.23;;;;;;;23.86;56.86;101312.56;5056067;28;20134;-63
2021/08/12 09:23:00;;;;;;;16.27;7.53;;;;;;;23.83;56.41;101326.59;5087040;28;20055;-62
2021/08/12 09:25:30;;;;;;;15.93;7.68;;;;;;;23.69;56.68;101318.03;5086811;28;20032;-62
2021/08/12 09:28:17;;;;;;;23.25;7.45;;;;;;;24.16;55.31;101313.25;5087193;28;20044;-62
2021/08/12 09:31:07;;;;;;;17.33;7.82;;;;;;;23.12;57.48;101319.38;5068382;28;20547;-61
2021/08/12 09:33:44;;;;;;;20.05;7.55;;;;;;;23.50;57.03;101316.25;5084630;28;20059;-62
2021/08/12 09:36:22;;;;;;;19.13;7.70;;;;;;;23.83;55.72;101310.53;5065160;28;20510;-61
2021/08/12 09:39:22;;;;;;;15.57;7.68;;;;;;;23.86;56.15;101312.56;5067312;28;20454;-62
2021/08/12 09:41:54;;;;;;;23.42;9.18;;;;;;;23.88;57.89;101307.34;5057629;28;20077;-56
2021/08/12 09:44:42;;;;;;;22.90;8.02;;;;;;;24.17;56.49;101306.41;5075100;28;20053;-53
2021/08/12 09:47:35;;;;;;;17.25;7.25;;;;;;;24.00;55.70;101309.09;5066021;28;20060;-43
2021/08/12 09:50:03;;;;;;;18.52;7.50;;;;;;;24.18;56.09;101315.66;5089676;28;20514;-42
2021/08/12 09:52:33;;;;;;;17.13;7.85;;;;;;;24.21;55.63;101312.88;5095471;28;20040;-48
2021/08/12 09:55:12;;;;;;;18.05;7.45;;;;;;;24.27;55.64;101311.28;5077201;28;20048;-44
2021/08/12 09:58:01;;;;;;;13.75;7.53;;;;;;;24.46;54.88;101302.56;5094539;28;20044;-44
2021/08/12 10:00:34;;;;;;;17.27;7.50;;;;;;;24.43;55.15;101297.72;5094691;28;20404;-46
2021/08/12 10:03:19;;;;;;;20.38;6.82;;;;;;;24.61;53.96;101291.38;5072610;28;20052;-45
2021/08/12 10:05:47;;;;;;;16.10;6.63;;;;;;;24.88;53.93;101293.56;5076623;28;20051;-45
2021/08/12 10:08:28;;;;;;;16.42;6.68;;;;;;;24.67;54.57;101292.63;5094754;28;20053;-44
2021/08/12 10:10:57;;;;;;;16.80;7.10;;;;;;;24.45;54.60;101294.50;5094100;28;20075;-42
2021/08/12 10:13:25;;;;;;;18.65;7.22;;;;;;;24.78;54.35;101299.13;5066862;28;20053;-43
2021/08/12 10:15:52;;;;;;;17.33;7.28;;;;;;;24.94;53.68;101291.16;5084323;28;20047;-46
2021/08/12 10:18:21;;;;;;;14.52;6.95;;;;;;;25.10;53.30;101294.44;5093176;28;20134;-45
2021/08/12 10:20:49;;;;;;;13.40;6.45;;;;;;;25.12;53.56;101289.22;5074228;28;20052;-43
2021/08/12 10:23:17;;;;;;;13.55;6.85;;;;;;;25.19;53.13;101290.03;5073731;28;20063;-45
2021/08/12 10:25:49;;;;;;;12.13;6.00;;;;;;;25.36;52.49;101288.47;5072296;28;20062;-45
2021/08/12 10:28:18;;;;;;;12.10;6.28;;;;;;;25.16;53.32;101288.00;5076928;28;20044;-43
2021/08/12 10:30:46;;;;;;;15.23;6.37;;;;;;;25.40;52.26;101286.50;5093998;28;20055;-46
2021/08/12 10:33:13;;;;;;;17.25;6.78;;;;;;;25.58;51.66;101295.78;5075822;28;20052;-45
2021/08/12 10:35:41;;;;;;;15.68;6.68;;;;;;;25.28;52.04;101289.69;5075756;28;20522;-44
2021/08/12 10:38:08;;;;;;;11.80;6.45;;;;;;;25.55;51.85;101296.59;5075405;28;20074;-43
2021/08/12 10:40:37;;;;;;;13.38;6.75;;;;;;;25.76;51.64;101290.16;5067185;28;20052;-45
2021/08/12 10:43:05;;;;;;;14.55;6.90;;;;;;;25.84;51.44;101289.75;5074749;28;20055;-46
2021/08/12 10:45:33;;;;;;;18.33;8.35;;;;;;;26.07;50.03;101283.72;5075636;28;20051;-50
2021/08/12 10:48:00;;;;;;;10.82;6.35;;;;;;;25.90;50.82;101276.03;5072479;28;20044;-42
2021/08/12 10:50:34;;;;;;;11.45;6.38;;;;;;;25.92;50.43;101276.47;5093601;28;20052;-44
2021/08/12 10:53:03;;;;;;;16.30;7.35;;;;;;;25.85;50.40;101282.91;5085268;28;20055;-42
2021/08/12 10:55:31;;;;;;;12.43;7.13;;;;;;;26.07;49.64;101281.72;5073763;28;20503;-44
2021/08/12 10:58:17;;;;;;;15.45;7.55;;;;;;;25.98;49.99;101278.47;5074017;28;20052;-43
2021/08/12 11:00:46;;;;;;;16.52;7.30;;;;;;;26.11;49.69;101273.25;5091616;28;20491;-41
2021/08/12 11:03:13;;;;;;;24.35;11.80;;;;;;;26.40;53.24;101280.44;5074552;28;20059;-43
2021/08/12 11:06:00;;;;;;;14.95;8.27;;;;;;;26.14;53.51;101267.59;5075710;28;20059;-44
2021/08/12 11:08:51;;;;;;;18.02;7.15;;;;;;;25.97;53.43;101273.22;5094213;28;20411;-42
2021/08/12 11:11:28;;;;;;;17.13;7.63;;;;;;;26.23;51.29;101273.63;5085022;28;20067;-44
2021/08/12 11:13:57;;;;;;;16.15;8.38;;;;;;;26.26;51.78;101263.53;5085836;28;20055;-45
2021/08/12 11:16:26;;;;;;;14.32;6.80;;;;;;;26.57;50.18;101277.56;5087998;28;20036;-41
2021/08/12 11:18:58;;;;;;;15.35;6.60;;;;;;;26.71;47.81;101275.97;5088232;28;20044;-46
2021/08/12 11:21:41;;;;;;;11.93;6.85;;;;;;;27.11;47.91;101273.31;5092998;28;20048;-46
2021/08/12 11:24:29;;;;;;;14.65;7.15;;;;;;;26.66;48.60;101266.66;5090592;28;20048;-46
2021/08/12 11:26:57;;;;;;;17.08;7.20;;;;;;;26.50;49.70;101273.97;5063840;28;20710;-48
2021/08/12 11:29:38;;;;;;;14.13;6.85;;;;;;;26.74;48.59;101263.81;5093615;28;20052;-43
2021/08/12 11:32:15;;;;;;;14.30;7.15;;;;;;;26.80;48.16;101262.19;5073852;28;20044;-43